sensor_id;sensor_type;location;lat;lon;timestamp;temperature;humidity
11818;DHT22;5966;52.402;5.322;2023-02-02T00:00:50;7.50;99.90
11818;DHT22;5966;52.402;5.322;2023-02-02T00:03:18;7.50;99.90
11818;DHT22;5966;52.402;5.322;2023-02-02T00:05:47;7.50;99.90
11818;DHT22;5966;52.402;5.322;2023-02-02T00:08:16;7.50;99.90
11818;DHT22;5966;52.402;5.322;2023-02-02T00:10:44;7.50;99.90
11818;DHT22;5966;52.402;5.322;2023-02-02T00:13:13;7.50;99.90
11818;DHT22;5966;52.402;5.322;2023-02-02T00:15:42;7.50;99.90
11818;DHT22;5966;52.402;5.322;2023-02-02T00:18:10;7.50;99.90
11818;DHT22;5966;52.402;5.322;2023-02-02T00:20:38;7.50;99.90
11818;DHT22;5966;52.402;5.322;2023-02-02T00:23:06;7.50;99.90
11818;DHT22;5966;52.402;5.322;2023-02-02T00:25:34;7.60;99.90
11818;DHT22;5966;52.402;5.322;2023-02-02T00:28:02;7.60;99.90
11818;DHT22;5966;52.402;5.322;2023-02-02T00:30:30;7.50;99.90
11818;DHT22;5966;52.402;5.322;2023-02-02T00:33:00;7.60;99.90
11818;DHT22;5966;52.402;5.322;2023-02-02T00:35:28;7.60;99.90
11818;DHT22;5966;52.402;5.322;2023-02-02T00:37:56;7.60;99.90
11818;DHT22;5966;52.402;5.322;2023-02-02T00:40:24;7.60;99.90
11818;DHT22;5966;52.402;5.322;2023-02-02T00:42:52;7.60;99.90
11818;DHT22;5966;52.402;5.322;2023-02-02T00:45:20;7.60;99.90
11818;DHT22;5966;52.402;5.322;2023-02-02T00:47:48;7.60;99.90
11818;DHT22;5966;52.402;5.322;2023-02-02T00:50:19;7.60;99.90
11818;DHT22;5966;52.402;5.322;2023-02-02T00:52:48;7.60;99.90
11818;DHT22;5966;52.402;5.322;2023-02-02T00:55:16;7.60;99.90
11818;DHT22;5966;52.402;5.322;2023-02-02T00:57:45;7.60;99.90
11818;DHT22;5966;52.402;5.322;2023-02-02T01:00:16;7.60;99.90
11818;DHT22;5966;52.402;5.322;2023-02-02T01:02:44;7.60;99.90
11818;DHT22;5966;52.402;5.322;2023-02-02T01:05:12;7.50;99.90
11818;DHT22;5966;52.402;5.322;2023-02-02T01:07:42;7.50;99.90
11818;DHT22;5966;52.402;5.322;2023-02-02T01:10:12;7.50;99.90
11818;DHT22;5966;52.402;5.322;2023-02-02T01:12:41;7.50;99.90
11818;DHT22;5966;52.402;5.322;2023-02-02T01:15:10;7.60;99.90
11818;DHT22;5966;52.402;5.322;2023-02-02T01:17:39;7.60;99.90
11818;DHT22;5966;52.402;5.322;2023-02-02T01:20:14;7.60;99.90
11818;DHT22;5966;52.402;5.322;2023-02-02T01:22:44;7.60;99.90
11818;DHT22;5966;52.402;5.322;2023-02-02T01:25:12;7.60;99.90
11818;DHT22;5966;52.402;5.322;2023-02-02T01:27:40;7.60;99.90
11818;DHT22;5966;52.402;5.322;2023-02-02T01:30:10;7.50;99.90
11818;DHT22;5966;52.402;5.322;2023-02-02T01:32:38;7.50;99.90
11818;DHT22;5966;52.402;5.322;2023-02-02T01:35:06;7.50;99.90
11818;DHT22;5966;52.402;5.322;2023-02-02T01:37:35;7.50;99.90
11818;DHT22;5966;52.402;5.322;2023-02-02T01:40:08;7.50;99.90
11818;DHT22;5966;52.402;5.322;2023-02-02T01:42:36;7.40;99.90
11818;DHT22;5966;52.402;5.322;2023-02-02T01:45:20;7.40;99.90
11818;DHT22;5966;52.402;5.322;2023-02-02T01:47:52;7.40;99.90
11818;DHT22;5966;52.402;5.322;2023-02-02T01:50:24;7.40;99.90
11818;DHT22;5966;52.402;5.322;2023-02-02T01:52:55;7.40;99.90
11818;DHT22;5966;52.402;5.322;2023-02-02T01:55:28;7.40;99.90
11818;DHT22;5966;52.402;5.322;2023-02-02T01:58:00;7.40;99.90
11818;DHT22;5966;52.402;5.322;2023-02-02T02:00:29;7.40;99.90
11818;DHT22;5966;52.402;5.322;2023-02-02T02:02:59;7.40;99.90
11818;DHT22;5966;52.402;5.322;2023-02-02T02:05:31;7.40;99.90
11818;DHT22;5966;52.402;5.322;2023-02-02T02:08:06;7.40;99.90
11818;DHT22;5966;52.402;5.322;2023-02-02T02:10:37;7.40;99.90
11818;DHT22;5966;52.402;5.322;2023-02-02T02:13:05;7.40;99.90
11818;DHT22;5966;52.402;5.322;2023-02-02T02:15:39;7.40;99.90
11818;DHT22;5966;52.402;5.322;2023-02-02T02:18:35;7.40;99.90
11818;DHT22;5966;52.402;5.322;2023-02-02T02:21:29;7.40;99.90
11818;DHT22;5966;52.402;5.322;2023-02-02T02:30:38;7.40;99.90
11818;DHT22;5966;52.402;5.322;2023-02-02T02:33:12;7.40;99.90
11818;DHT22;5966;52.402;5.322;2023-02-02T02:35:48;7.40;99.90
11818;DHT22;5966;52.402;5.322;2023-02-02T02:38:22;7.40;99.90
11818;DHT22;5966;52.402;5.322;2023-02-02T02:40:55;7.40;99.90
11818;DHT22;5966;52.402;5.322;2023-02-02T02:43:28;7.40;99.90
11818;DHT22;5966;52.402;5.322;2023-02-02T02:45:57;7.40;99.90
11818;DHT22;5966;52.402;5.322;2023-02-02T02:48:28;7.40;99.90
11818;DHT22;5966;52.402;5.322;2023-02-02T02:51:04;7.40;99.90
11818;DHT22;5966;52.402;5.322;2023-02-02T02:53:33;7.40;99.90
11818;DHT22;5966;52.402;5.322;2023-02-02T02:56:07;7.40;99.90
11818;DHT22;5966;52.402;5.322;2023-02-02T02:58:46;7.40;99.90
11818;DHT22;5966;52.402;5.322;2023-02-02T03:01:20;7.40;99.90
11818;DHT22;5966;52.402;5.322;2023-02-02T03:04:05;7.50;99.90
11818;DHT22;5966;52.402;5.322;2023-02-02T03:06:41;7.50;99.90
11818;DHT22;5966;52.402;5.322;2023-02-02T03:09:12;7.50;99.90
11818;DHT22;5966;52.402;5.322;2023-02-02T03:11:42;7.50;99.90
11818;DHT22;5966;52.402;5.322;2023-02-02T03:14:10;7.50;99.90
11818;DHT22;5966;52.402;5.322;2023-02-02T03:16:38;7.50;99.90
11818;DHT22;5966;52.402;5.322;2023-02-02T03:19:08;7.50;99.90
11818;DHT22;5966;52.402;5.322;2023-02-02T03:21:36;7.50;99.90
11818;DHT22;5966;52.402;5.322;2023-02-02T03:24:04;7.50;99.90
11818;DHT22;5966;52.402;5.322;2023-02-02T03:26:32;7.50;99.90
11818;DHT22;5966;52.402;5.322;2023-02-02T03:29:01;7.50;99.90
11818;DHT22;5966;52.402;5.322;2023-02-02T03:31:29;7.50;99.90
11818;DHT22;5966;52.402;5.322;2023-02-02T03:33:57;7.50;99.90
11818;DHT22;5966;52.402;5.322;2023-02-02T03:36:26;7.50;99.90
11818;DHT22;5966;52.402;5.322;2023-02-02T03:38:54;7.60;99.90
11818;DHT22;5966;52.402;5.322;2023-02-02T03:41:22;7.60;99.90
11818;DHT22;5966;52.402;5.322;2023-02-02T03:43:50;7.60;99.90
11818;DHT22;5966;52.402;5.322;2023-02-02T03:46:18;7.60;99.90
11818;DHT22;5966;52.402;5.322;2023-02-02T03:48:46;7.60;99.90
11818;DHT22;5966;52.402;5.322;2023-02-02T03:51:14;7.60;99.90
11818;DHT22;5966;52.402;5.322;2023-02-02T03:53:43;7.60;99.90
11818;DHT22;5966;52.402;5.322;2023-02-02T03:56:13;7.60;99.90
11818;DHT22;5966;52.402;5.322;2023-02-02T03:58:41;7.60;99.90
11818;DHT22;5966;52.402;5.322;2023-02-02T04:01:11;7.60;99.90
11818;DHT22;5966;52.402;5.322;2023-02-02T04:03:39;7.60;99.90
11818;DHT22;5966;52.402;5.322;2023-02-02T04:06:08;7.60;99.90
11818;DHT22;5966;52.402;5.322;2023-02-02T04:08:36;7.60;99.90
11818;DHT22;5966;52.402;5.322;2023-02-02T04:11:09;7.60;99.90
11818;DHT22;5966;52.402;5.322;2023-02-02T04:13:37;7.60;99.90
11818;DHT22;5966;52.402;5.322;2023-02-02T04:16:05;7.60;99.90
11818;DHT22;5966;52.402;5.322;2023-02-02T04:18:33;7.60;99.90
11818;DHT22;5966;52.402;5.322;2023-02-02T04:21:04;7.70;99.90
11818;DHT22;5966;52.402;5.322;2023-02-02T04:23:33;7.70;99.90
11818;DHT22;5966;52.402;5.322;2023-02-02T04:26:01;7.70;99.90
11818;DHT22;5966;52.402;5.322;2023-02-02T04:28:30;7.70;99.90
11818;DHT22;5966;52.402;5.322;2023-02-02T04:30:58;7.70;99.90
11818;DHT22;5966;52.402;5.322;2023-02-02T04:33:27;7.70;99.90
11818;DHT22;5966;52.402;5.322;2023-02-02T04:35:55;7.70;99.90
11818;DHT22;5966;52.402;5.322;2023-02-02T04:38:23;7.70;99.90
11818;DHT22;5966;52.402;5.322;2023-02-02T04:40:51;7.80;99.90
11818;DHT22;5966;52.402;5.322;2023-02-02T04:43:19;7.80;99.90
11818;DHT22;5966;52.402;5.322;2023-02-02T04:45:54;7.80;99.90
11818;DHT22;5966;52.402;5.322;2023-02-02T04:48:22;7.80;99.90
11818;DHT22;5966;52.402;5.322;2023-02-02T04:50:50;7.80;99.90
11818;DHT22;5966;52.402;5.322;2023-02-02T04:53:18;7.80;99.90
11818;DHT22;5966;52.402;5.322;2023-02-02T04:55:45;7.90;99.90
11818;DHT22;5966;52.402;5.322;2023-02-02T04:58:13;7.90;99.90
11818;DHT22;5966;52.402;5.322;2023-02-02T05:00:41;7.90;99.90
11818;DHT22;5966;52.402;5.322;2023-02-02T05:03:10;7.90;99.90
11818;DHT22;5966;52.402;5.322;2023-02-02T05:05:38;7.90;99.90
11818;DHT22;5966;52.402;5.322;2023-02-02T05:08:06;7.90;99.90
11818;DHT22;5966;52.402;5.322;2023-02-02T05:10:39;7.90;99.90
11818;DHT22;5966;52.402;5.322;2023-02-02T05:13:07;7.90;99.90
11818;DHT22;5966;52.402;5.322;2023-02-02T05:15:35;7.90;99.90
11818;DHT22;5966;52.402;5.322;2023-02-02T05:18:03;7.90;99.90
11818;DHT22;5966;52.402;5.322;2023-02-02T05:20:32;7.90;99.90
11818;DHT22;5966;52.402;5.322;2023-02-02T05:23:00;7.90;99.90
11818;DHT22;5966;52.402;5.322;2023-02-02T05:25:28;7.90;99.90
11818;DHT22;5966;52.402;5.322;2023-02-02T05:27:56;7.90;99.90
11818;DHT22;5966;52.402;5.322;2023-02-02T05:30:24;7.90;99.90
11818;DHT22;5966;52.402;5.322;2023-02-02T05:32:52;8.00;99.90
11818;DHT22;5966;52.402;5.322;2023-02-02T05:35:20;7.90;99.90
11818;DHT22;5966;52.402;5.322;2023-02-02T05:37:49;7.90;99.90
11818;DHT22;5966;52.402;5.322;2023-02-02T05:40:17;8.00;99.90
11818;DHT22;5966;52.402;5.322;2023-02-02T05:42:46;8.00;99.90
11818;DHT22;5966;52.402;5.322;2023-02-02T05:45:15;8.00;99.90
11818;DHT22;5966;52.402;5.322;2023-02-02T05:47:42;8.00;99.90
11818;DHT22;5966;52.402;5.322;2023-02-02T05:50:10;8.00;99.90
11818;DHT22;5966;52.402;5.322;2023-02-02T05:52:39;8.00;99.90
11818;DHT22;5966;52.402;5.322;2023-02-02T05:55:10;7.90;99.90
11818;DHT22;5966;52.402;5.322;2023-02-02T05:57:37;7.90;99.90
11818;DHT22;5966;52.402;5.322;2023-02-02T06:00:06;7.90;99.90
11818;DHT22;5966;52.402;5.322;2023-02-02T06:02:35;7.90;99.90
11818;DHT22;5966;52.402;5.322;2023-02-02T06:05:03;7.90;99.90
11818;DHT22;5966;52.402;5.322;2023-02-02T06:07:31;7.90;99.90
11818;DHT22;5966;52.402;5.322;2023-02-02T06:09:59;7.90;99.90
11818;DHT22;5966;52.402;5.322;2023-02-02T06:12:28;7.90;99.90
11818;DHT22;5966;52.402;5.322;2023-02-02T06:14:57;7.90;99.90
11818;DHT22;5966;52.402;5.322;2023-02-02T06:17:25;7.90;99.90
11818;DHT22;5966;52.402;5.322;2023-02-02T06:19:53;7.90;99.90
11818;DHT22;5966;52.402;5.322;2023-02-02T06:22:21;7.90;99.90
11818;DHT22;5966;52.402;5.322;2023-02-02T06:24:49;7.80;99.90
11818;DHT22;5966;52.402;5.322;2023-02-02T06:27:19;7.80;99.90
11818;DHT22;5966;52.402;5.322;2023-02-02T06:29:48;7.80;99.90
11818;DHT22;5966;52.402;5.322;2023-02-02T06:32:16;7.80;99.90
11818;DHT22;5966;52.402;5.322;2023-02-02T06:34:44;7.80;99.90
11818;DHT22;5966;52.402;5.322;2023-02-02T06:37:12;7.80;99.90
11818;DHT22;5966;52.402;5.322;2023-02-02T06:39:39;7.80;99.90
11818;DHT22;5966;52.402;5.322;2023-02-02T06:42:07;7.80;99.90
11818;DHT22;5966;52.402;5.322;2023-02-02T06:44:48;7.80;99.90
11818;DHT22;5966;52.402;5.322;2023-02-02T06:47:16;7.80;99.90
11818;DHT22;5966;52.402;5.322;2023-02-02T06:49:44;7.80;99.90
11818;DHT22;5966;52.402;5.322;2023-02-02T06:52:12;7.80;99.90
11818;DHT22;5966;52.402;5.322;2023-02-02T06:54:40;7.80;99.90
11818;DHT22;5966;52.402;5.322;2023-02-02T06:57:08;7.80;99.90
11818;DHT22;5966;52.402;5.322;2023-02-02T06:59:36;7.70;99.90
11818;DHT22;5966;52.402;5.322;2023-02-02T07:02:10;7.70;99.90
11818;DHT22;5966;52.402;5.322;2023-02-02T07:04:38;7.70;99.90
11818;DHT22;5966;52.402;5.322;2023-02-02T07:07:06;7.70;99.90
11818;DHT22;5966;52.402;5.322;2023-02-02T07:09:34;7.70;99.90
11818;DHT22;5966;52.402;5.322;2023-02-02T07:12:03;7.70;99.90
11818;DHT22;5966;52.402;5.322;2023-02-02T07:14:30;7.70;99.90
11818;DHT22;5966;52.402;5.322;2023-02-02T07:16:58;7.70;99.90
11818;DHT22;5966;52.402;5.322;2023-02-02T07:19:28;7.70;99.90
11818;DHT22;5966;52.402;5.322;2023-02-02T07:21:56;7.70;99.90
11818;DHT22;5966;52.402;5.322;2023-02-02T07:24:23;7.70;99.90
11818;DHT22;5966;52.402;5.322;2023-02-02T07:26:53;7.70;99.90
11818;DHT22;5966;52.402;5.322;2023-02-02T07:29:21;7.70;99.90
11818;DHT22;5966;52.402;5.322;2023-02-02T07:31:49;7.70;99.90
11818;DHT22;5966;52.402;5.322;2023-02-02T07:34:17;7.70;99.90
11818;DHT22;5966;52.402;5.322;2023-02-02T07:36:46;7.70;99.90
11818;DHT22;5966;52.402;5.322;2023-02-02T07:39:14;7.70;99.90
11818;DHT22;5966;52.402;5.322;2023-02-02T07:41:42;7.70;99.90
11818;DHT22;5966;52.402;5.322;2023-02-02T07:44:12;7.70;99.90
11818;DHT22;5966;52.402;5.322;2023-02-02T07:46:41;7.70;99.90
11818;DHT22;5966;52.402;5.322;2023-02-02T07:49:12;7.70;99.90
11818;DHT22;5966;52.402;5.322;2023-02-02T07:51:41;7.70;99.90
11818;DHT22;5966;52.402;5.322;2023-02-02T07:54:14;7.70;99.90
11818;DHT22;5966;52.402;5.322;2023-02-02T07:56:42;7.70;99.90
11818;DHT22;5966;52.402;5.322;2023-02-02T07:59:10;7.70;99.90
11818;DHT22;5966;52.402;5.322;2023-02-02T08:01:38;7.70;99.90
11818;DHT22;5966;52.402;5.322;2023-02-02T08:04:06;7.70;99.90
11818;DHT22;5966;52.402;5.322;2023-02-02T08:06:35;7.70;99.90
11818;DHT22;5966;52.402;5.322;2023-02-02T08:09:06;7.80;99.90
11818;DHT22;5966;52.402;5.322;2023-02-02T08:11:36;7.80;99.90
11818;DHT22;5966;52.402;5.322;2023-02-02T08:14:05;7.80;99.90
11818;DHT22;5966;52.402;5.322;2023-02-02T08:16:33;7.80;99.90
11818;DHT22;5966;52.402;5.322;2023-02-02T08:19:01;7.80;99.90
11818;DHT22;5966;52.402;5.322;2023-02-02T08:21:32;7.80;99.90
11818;DHT22;5966;52.402;5.322;2023-02-02T08:24:00;7.80;99.90
11818;DHT22;5966;52.402;5.322;2023-02-02T08:26:30;7.80;99.90
11818;DHT22;5966;52.402;5.322;2023-02-02T08:29:01;7.80;99.90
11818;DHT22;5966;52.402;5.322;2023-02-02T08:31:31;7.90;99.90
11818;DHT22;5966;52.402;5.322;2023-02-02T08:33:59;7.90;99.90
11818;DHT22;5966;52.402;5.322;2023-02-02T08:36:29;7.90;99.90
11818;DHT22;5966;52.402;5.322;2023-02-02T08:38:59;7.90;99.90
11818;DHT22;5966;52.402;5.322;2023-02-02T08:41:29;7.90;99.90
11818;DHT22;5966;52.402;5.322;2023-02-02T08:43:57;7.90;99.90
11818;DHT22;5966;52.402;5.322;2023-02-02T08:46:26;8.00;99.90
11818;DHT22;5966;52.402;5.322;2023-02-02T08:48:55;8.00;99.90
11818;DHT22;5966;52.402;5.322;2023-02-02T08:51:23;8.00;99.90
11818;DHT22;5966;52.402;5.322;2023-02-02T08:53:51;8.00;99.90
11818;DHT22;5966;52.402;5.322;2023-02-02T08:56:20;8.00;99.90
11818;DHT22;5966;52.402;5.322;2023-02-02T08:58:51;8.00;99.90
11818;DHT22;5966;52.402;5.322;2023-02-02T09:01:21;8.00;99.90
11818;DHT22;5966;52.402;5.322;2023-02-02T09:03:54;8.10;99.90
11818;DHT22;5966;52.402;5.322;2023-02-02T09:06:27;8.10;99.90
11818;DHT22;5966;52.402;5.322;2023-02-02T09:08:55;8.10;99.90
11818;DHT22;5966;52.402;5.322;2023-02-02T09:11:23;8.10;99.90
11818;DHT22;5966;52.402;5.322;2023-02-02T09:13:53;8.10;99.90
11818;DHT22;5966;52.402;5.322;2023-02-02T09:16:22;8.10;99.90
11818;DHT22;5966;52.402;5.322;2023-02-02T09:18:53;8.10;99.90
11818;DHT22;5966;52.402;5.322;2023-02-02T09:21:21;8.10;99.90
11818;DHT22;5966;52.402;5.322;2023-02-02T09:23:50;8.20;99.90
11818;DHT22;5966;52.402;5.322;2023-02-02T09:26:21;8.20;99.90
11818;DHT22;5966;52.402;5.322;2023-02-02T09:28:52;8.20;99.90
11818;DHT22;5966;52.402;5.322;2023-02-02T09:31:20;8.20;99.90
11818;DHT22;5966;52.402;5.322;2023-02-02T09:33:48;8.20;99.90
11818;DHT22;5966;52.402;5.322;2023-02-02T09:36:19;8.20;99.90
11818;DHT22;5966;52.402;5.322;2023-02-02T09:38:47;8.30;99.90
11818;DHT22;5966;52.402;5.322;2023-02-02T09:44:36;8.30;99.90
11818;DHT22;5966;52.402;5.322;2023-02-02T09:47:15;8.30;99.90
11818;DHT22;5966;52.402;5.322;2023-02-02T09:49:53;8.30;99.90
11818;DHT22;5966;52.402;5.322;2023-02-02T09:52:27;8.40;99.90
11818;DHT22;5966;52.402;5.322;2023-02-02T09:54:59;8.40;99.90
11818;DHT22;5966;52.402;5.322;2023-02-02T09:57:34;8.40;99.90
11818;DHT22;5966;52.402;5.322;2023-02-02T10:00:06;8.40;99.90
11818;DHT22;5966;52.402;5.322;2023-02-02T10:02:44;8.40;99.90
11818;DHT22;5966;52.402;5.322;2023-02-02T10:05:18;8.40;99.90
11818;DHT22;5966;52.402;5.322;2023-02-02T10:07:52;8.40;99.90
11818;DHT22;5966;52.402;5.322;2023-02-02T10:10:26;8.40;99.90
11818;DHT22;5966;52.402;5.322;2023-02-02T10:12:56;8.40;99.90
11818;DHT22;5966;52.402;5.322;2023-02-02T10:15:33;8.40;99.90
11818;DHT22;5966;52.402;5.322;2023-02-02T10:18:11;8.40;99.90
11818;DHT22;5966;52.402;5.322;2023-02-02T10:20:47;8.40;99.90
11818;DHT22;5966;52.402;5.322;2023-02-02T10:23:24;8.40;99.90
11818;DHT22;5966;52.402;5.322;2023-02-02T10:25:57;8.40;99.90
11818;DHT22;5966;52.402;5.322;2023-02-02T10:28:40;8.40;99.90
11818;DHT22;5966;52.402;5.322;2023-02-02T10:31:20;8.40;99.90
11818;DHT22;5966;52.402;5.322;2023-02-02T10:33:57;8.40;99.90
11818;DHT22;5966;52.402;5.322;2023-02-02T10:36:34;8.40;99.90
11818;DHT22;5966;52.402;5.322;2023-02-02T10:39:16;8.40;99.90
11818;DHT22;5966;52.402;5.322;2023-02-02T10:41:53;8.40;99.90
11818;DHT22;5966;52.402;5.322;2023-02-02T10:44:32;8.50;99.90
11818;DHT22;5966;52.402;5.322;2023-02-02T10:47:05;8.50;99.90
11818;DHT22;5966;52.402;5.322;2023-02-02T10:49:37;8.40;99.90
11818;DHT22;5966;52.402;5.322;2023-02-02T10:52:14;8.50;99.90
11818;DHT22;5966;52.402;5.322;2023-02-02T10:54:50;8.50;99.90
11818;DHT22;5966;52.402;5.322;2023-02-02T10:57:45;8.50;99.90
11818;DHT22;5966;52.402;5.322;2023-02-02T11:00:20;8.50;99.90
11818;DHT22;5966;52.402;5.322;2023-02-02T11:02:50;8.50;99.90
11818;DHT22;5966;52.402;5.322;2023-02-02T11:05:21;8.60;99.90
11818;DHT22;5966;52.402;5.322;2023-02-02T11:08:14;8.60;99.90
11818;DHT22;5966;52.402;5.322;2023-02-02T11:10:46;8.60;99.90
11818;DHT22;5966;52.402;5.322;2023-02-02T11:13:26;8.60;99.90
11818;DHT22;5966;52.402;5.322;2023-02-02T11:16:25;8.60;99.90
11818;DHT22;5966;52.402;5.322;2023-02-02T11:19:22;8.60;99.90
11818;DHT22;5966;52.402;5.322;2023-02-02T11:21:52;8.60;99.90
11818;DHT22;5966;52.402;5.322;2023-02-02T11:24:23;8.60;99.90
11818;DHT22;5966;52.402;5.322;2023-02-02T11:26:56;8.60;99.90
11818;DHT22;5966;52.402;5.322;2023-02-02T11:29:28;8.60;99.90
11818;DHT22;5966;52.402;5.322;2023-02-02T11:31:58;8.60;99.90
11818;DHT22;5966;52.402;5.322;2023-02-02T11:34:44;8.60;99.90
11818;DHT22;5966;52.402;5.322;2023-02-02T11:37:13;8.60;99.90
11818;DHT22;5966;52.402;5.322;2023-02-02T11:39:42;8.60;99.90
11818;DHT22;5966;52.402;5.322;2023-02-02T11:42:15;8.60;99.90
11818;DHT22;5966;52.402;5.322;2023-02-02T11:44:47;8.60;99.90
11818;DHT22;5966;52.402;5.322;2023-02-02T11:47:23;8.60;99.90
11818;DHT22;5966;52.402;5.322;2023-02-02T11:49:52;8.60;99.90
11818;DHT22;5966;52.402;5.322;2023-02-02T11:52:26;8.60;99.90
11818;DHT22;5966;52.402;5.322;2023-02-02T11:55:00;8.60;99.90
11818;DHT22;5966;52.402;5.322;2023-02-02T11:57:30;8.70;99.90
11818;DHT22;5966;52.402;5.322;2023-02-02T12:00:15;8.60;99.90
11818;DHT22;5966;52.402;5.322;2023-02-02T12:02:45;8.60;99.90
11818;DHT22;5966;52.402;5.322;2023-02-02T12:05:32;8.70;99.90
11818;DHT22;5966;52.402;5.322;2023-02-02T12:08:00;8.70;99.90
11818;DHT22;5966;52.402;5.322;2023-02-02T12:10:37;8.70;99.90
11818;DHT22;5966;52.402;5.322;2023-02-02T12:13:14;8.70;99.90
11818;DHT22;5966;52.402;5.322;2023-02-02T12:15:50;8.70;99.90
11818;DHT22;5966;52.402;5.322;2023-02-02T12:18:33;8.80;99.90
11818;DHT22;5966;52.402;5.322;2023-02-02T12:21:05;8.70;99.90
11818;DHT22;5966;52.402;5.322;2023-02-02T12:23:53;8.70;99.90
11818;DHT22;5966;52.402;5.322;2023-02-02T12:26:27;8.70;99.90
11818;DHT22;5966;52.402;5.322;2023-02-02T12:29:15;8.70;99.90
11818;DHT22;5966;52.402;5.322;2023-02-02T12:31:58;8.70;99.90
11818;DHT22;5966;52.402;5.322;2023-02-02T12:34:39;8.70;99.90
11818;DHT22;5966;52.402;5.322;2023-02-02T12:37:17;8.70;99.90
11818;DHT22;5966;52.402;5.322;2023-02-02T12:40:01;8.70;99.90
11818;DHT22;5966;52.402;5.322;2023-02-02T12:42:46;8.70;99.90
11818;DHT22;5966;52.402;5.322;2023-02-02T12:48:33;8.70;99.90
11818;DHT22;5966;52.402;5.322;2023-02-02T12:51:14;8.70;99.90
11818;DHT22;5966;52.402;5.322;2023-02-02T12:54:08;8.70;99.90
11818;DHT22;5966;52.402;5.322;2023-02-02T12:57:06;8.70;99.90
11818;DHT22;5966;52.402;5.322;2023-02-02T12:59:52;8.70;99.90
11818;DHT22;5966;52.402;5.322;2023-02-02T13:02:29;8.70;99.90
11818;DHT22;5966;52.402;5.322;2023-02-02T13:05:14;8.70;99.90
11818;DHT22;5966;52.402;5.322;2023-02-02T13:07:48;8.60;99.90
11818;DHT22;5966;52.402;5.322;2023-02-02T13:10:22;8.60;99.90
11818;DHT22;5966;52.402;5.322;2023-02-02T13:12:55;8.60;99.90
11818;DHT22;5966;52.402;5.322;2023-02-02T13:15:29;8.60;99.90
11818;DHT22;5966;52.402;5.322;2023-02-02T13:18:02;8.60;99.90
11818;DHT22;5966;52.402;5.322;2023-02-02T13:20:36;8.60;99.90
11818;DHT22;5966;52.402;5.322;2023-02-02T13:23:08;8.60;99.90
11818;DHT22;5966;52.402;5.322;2023-02-02T13:25:43;8.60;99.90
11818;DHT22;5966;52.402;5.322;2023-02-02T13:28:19;8.60;99.90
11818;DHT22;5966;52.402;5.322;2023-02-02T13:30:51;8.60;99.90
11818;DHT22;5966;52.402;5.322;2023-02-02T13:33:26;8.60;99.90
11818;DHT22;5966;52.402;5.322;2023-02-02T13:35:59;8.60;99.90
11818;DHT22;5966;52.402;5.322;2023-02-02T13:38:29;8.50;99.90
11818;DHT22;5966;52.402;5.322;2023-02-02T13:41:04;8.50;99.90
11818;DHT22;5966;52.402;5.322;2023-02-02T13:43:38;8.50;99.90
11818;DHT22;5966;52.402;5.322;2023-02-02T13:46:19;8.50;99.90
11818;DHT22;5966;52.402;5.322;2023-02-02T13:48:59;8.40;99.90
11818;DHT22;5966;52.402;5.322;2023-02-02T13:51:49;8.40;99.90
11818;DHT22;5966;52.402;5.322;2023-02-02T13:54:54;8.40;99.90
11818;DHT22;5966;52.402;5.322;2023-02-02T13:57:53;8.30;99.90
11818;DHT22;5966;52.402;5.322;2023-02-02T14:00:28;8.30;99.90
11818;DHT22;5966;52.402;5.322;2023-02-02T14:02:59;8.30;99.90
11818;DHT22;5966;52.402;5.322;2023-02-02T14:05:33;8.30;99.90
11818;DHT22;5966;52.402;5.322;2023-02-02T14:08:04;8.30;99.90
11818;DHT22;5966;52.402;5.322;2023-02-02T14:10:34;8.30;99.90
11818;DHT22;5966;52.402;5.322;2023-02-02T14:13:13;8.30;99.90
11818;DHT22;5966;52.402;5.322;2023-02-02T14:15:57;8.30;99.90
11818;DHT22;5966;52.402;5.322;2023-02-02T14:18:50;8.30;99.90
11818;DHT22;5966;52.402;5.322;2023-02-02T14:21:58;8.30;99.90
11818;DHT22;5966;52.402;5.322;2023-02-02T14:24:42;8.30;99.90
11818;DHT22;5966;52.402;5.322;2023-02-02T14:27:40;8.20;99.90
11818;DHT22;5966;52.402;5.322;2023-02-02T14:30:24;8.20;99.90
11818;DHT22;5966;52.402;5.322;2023-02-02T14:32:53;8.20;99.90
11818;DHT22;5966;52.402;5.322;2023-02-02T14:35:58;8.20;99.90
11818;DHT22;5966;52.402;5.322;2023-02-02T14:38:50;8.20;99.90
11818;DHT22;5966;52.402;5.322;2023-02-02T14:41:29;8.20;99.90
11818;DHT22;5966;52.402;5.322;2023-02-02T14:44:15;8.20;99.90
11818;DHT22;5966;52.402;5.322;2023-02-02T14:46:43;8.30;99.90
11818;DHT22;5966;52.402;5.322;2023-02-02T14:49:20;8.30;99.90
11818;DHT22;5966;52.402;5.322;2023-02-02T14:51:56;8.20;99.90
11818;DHT22;5966;52.402;5.322;2023-02-02T14:54:31;8.20;99.90
11818;DHT22;5966;52.402;5.322;2023-02-02T14:57:03;8.20;99.90
11818;DHT22;5966;52.402;5.322;2023-02-02T14:59:35;8.20;99.90
11818;DHT22;5966;52.402;5.322;2023-02-02T15:02:16;8.20;99.90
11818;DHT22;5966;52.402;5.322;2023-02-02T15:04:45;8.20;99.90
11818;DHT22;5966;52.402;5.322;2023-02-02T15:07:37;8.20;99.90
11818;DHT22;5966;52.402;5.322;2023-02-02T15:11:00;8.20;99.90
11818;DHT22;5966;52.402;5.322;2023-02-02T15:13:53;8.20;99.90
11818;DHT22;5966;52.402;5.322;2023-02-02T15:16:26;8.20;99.90
11818;DHT22;5966;52.402;5.322;2023-02-02T15:19:02;8.20;99.90
11818;DHT22;5966;52.402;5.322;2023-02-02T15:21:33;8.20;99.90
11818;DHT22;5966;52.402;5.322;2023-02-02T15:24:05;8.20;99.90
11818;DHT22;5966;52.402;5.322;2023-02-02T15:26:44;8.30;99.90
11818;DHT22;5966;52.402;5.322;2023-02-02T15:29:16;8.30;99.90
11818;DHT22;5966;52.402;5.322;2023-02-02T15:31:47;8.20;99.90
11818;DHT22;5966;52.402;5.322;2023-02-02T15:34:19;8.20;99.90
11818;DHT22;5966;52.402;5.322;2023-02-02T15:36:51;8.30;99.90
11818;DHT22;5966;52.402;5.322;2023-02-02T15:39:26;8.30;99.90
11818;DHT22;5966;52.402;5.322;2023-02-02T15:41:57;8.30;99.90
11818;DHT22;5966;52.402;5.322;2023-02-02T15:44:44;8.30;99.90
11818;DHT22;5966;52.402;5.322;2023-02-02T15:47:15;8.30;99.90
11818;DHT22;5966;52.402;5.322;2023-02-02T15:49:44;8.30;99.90
11818;DHT22;5966;52.402;5.322;2023-02-02T15:52:13;8.30;99.90
11818;DHT22;5966;52.402;5.322;2023-02-02T15:54:49;8.30;99.90
11818;DHT22;5966;52.402;5.322;2023-02-02T15:57:37;8.30;99.90
11818;DHT22;5966;52.402;5.322;2023-02-02T16:00:23;8.30;99.90
11818;DHT22;5966;52.402;5.322;2023-02-02T16:02:56;8.30;99.90
11818;DHT22;5966;52.402;5.322;2023-02-02T16:05:39;8.30;99.90
11818;DHT22;5966;52.402;5.322;2023-02-02T16:08:14;8.30;99.90
11818;DHT22;5966;52.402;5.322;2023-02-02T16:10:43;8.30;99.90
11818;DHT22;5966;52.402;5.322;2023-02-02T16:13:31;8.30;99.90
11818;DHT22;5966;52.402;5.322;2023-02-02T16:16:01;8.30;99.90
11818;DHT22;5966;52.402;5.322;2023-02-02T16:18:29;8.30;99.90
11818;DHT22;5966;52.402;5.322;2023-02-02T16:20:59;8.30;99.90
11818;DHT22;5966;52.402;5.322;2023-02-02T16:23:31;8.30;99.90
11818;DHT22;5966;52.402;5.322;2023-02-02T16:26:02;8.30;99.90
11818;DHT22;5966;52.402;5.322;2023-02-02T16:28:33;8.30;99.90
11818;DHT22;5966;52.402;5.322;2023-02-02T16:31:02;8.40;99.90
11818;DHT22;5966;52.402;5.322;2023-02-02T16:33:36;8.40;99.90
11818;DHT22;5966;52.402;5.322;2023-02-02T16:36:16;8.40;99.90
11818;DHT22;5966;52.402;5.322;2023-02-02T16:38:51;8.40;99.90
11818;DHT22;5966;52.402;5.322;2023-02-02T16:41:30;8.40;99.90
11818;DHT22;5966;52.402;5.322;2023-02-02T16:44:36;8.40;99.90
11818;DHT22;5966;52.402;5.322;2023-02-02T16:47:06;8.40;99.90
11818;DHT22;5966;52.402;5.322;2023-02-02T16:49:36;8.40;99.90
11818;DHT22;5966;52.402;5.322;2023-02-02T16:52:12;8.40;99.90